sensor_id;sensor_type;location;lat;lon;timestamp;P1;durP1;ratioP1;P2;durP2;ratioP2
17520;SDS011;8878;-33.370;-70.552;2023-05-06T00:02:18;40.83;;;14.00;;
17520;SDS011;8878;-33.370;-70.552;2023-05-06T00:04:47;41.90;;;13.80;;
17520;SDS011;8878;-33.370;-70.552;2023-05-06T00:07:18;31.53;;;15.10;;
17520;SDS011;8878;-33.370;-70.552;2023-05-06T00:09:47;43.87;;;15.63;;
17520;SDS011;8878;-33.370;-70.552;2023-05-06T00:12:19;38.10;;;14.87;;
17520;SDS011;8878;-33.370;-70.552;2023-05-06T00:14:48;39.17;;;16.30;;
17520;SDS011;8878;-33.370;-70.552;2023-05-06T00:17:17;32.93;;;14.77;;
17520;SDS011;8878;-33.370;-70.552;2023-05-06T00:19:47;31.03;;;16.20;;
17520;SDS011;8878;-33.370;-70.552;2023-05-06T00:22:17;31.97;;;15.17;;
17520;SDS011;8878;-33.370;-70.552;2023-05-06T00:24:46;31.40;;;14.47;;
17520;SDS011;8878;-33.370;-70.552;2023-05-06T00:27:18;42.57;;;15.00;;
17520;SDS011;8878;-33.370;-70.552;2023-05-06T00:29:47;29.80;;;12.73;;
17520;SDS011;8878;-33.370;-70.552;2023-05-06T00:32:17;30.67;;;13.13;;
17520;SDS011;8878;-33.370;-70.552;2023-05-06T00:34:47;26.33;;;11.87;;
17520;SDS011;8878;-33.370;-70.552;2023-05-06T00:37:17;30.60;;;13.57;;
17520;SDS011;8878;-33.370;-70.552;2023-05-06T00:39:46;28.20;;;14.40;;
17520;SDS011;8878;-33.370;-70.552;2023-05-06T00:42:16;34.53;;;12.37;;
17520;SDS011;8878;-33.370;-70.552;2023-05-06T00:44:48;27.77;;;12.93;;
17520;SDS011;8878;-33.370;-70.552;2023-05-06T00:47:18;26.03;;;11.20;;
17520;SDS011;8878;-33.370;-70.552;2023-05-06T00:49:49;29.27;;;12.00;;
17520;SDS011;8878;-33.370;-70.552;2023-05-06T00:52:20;23.43;;;12.87;;
17520;SDS011;8878;-33.370;-70.552;2023-05-06T00:54:49;31.00;;;13.40;;
17520;SDS011;8878;-33.370;-70.552;2023-05-06T00:57:21;28.93;;;13.10;;
17520;SDS011;8878;-33.370;-70.552;2023-05-06T00:59:52;28.30;;;12.47;;
17520;SDS011;8878;-33.370;-70.552;2023-05-06T01:02:22;25.33;;;12.53;;
17520;SDS011;8878;-33.370;-70.552;2023-05-06T01:04:52;25.60;;;10.80;;
17520;SDS011;8878;-33.370;-70.552;2023-05-06T01:07:25;37.20;;;14.27;;
17520;SDS011;8878;-33.370;-70.552;2023-05-06T01:10:02;30.50;;;12.87;;
17520;SDS011;8878;-33.370;-70.552;2023-05-06T01:12:43;36.57;;;13.27;;
17520;SDS011;8878;-33.370;-70.552;2023-05-06T01:15:19;32.67;;;11.83;;
17520;SDS011;8878;-33.370;-70.552;2023-05-06T01:17:54;38.27;;;13.23;;
17520;SDS011;8878;-33.370;-70.552;2023-05-06T01:20:28;33.03;;;13.67;;
17520;SDS011;8878;-33.370;-70.552;2023-05-06T01:22:58;32.43;;;14.00;;
17520;SDS011;8878;-33.370;-70.552;2023-05-06T01:25:29;26.67;;;13.67;;
17520;SDS011;8878;-33.370;-70.552;2023-05-06T01:27:59;32.80;;;13.63;;
17520;SDS011;8878;-33.370;-70.552;2023-05-06T01:30:29;35.30;;;13.13;;
17520;SDS011;8878;-33.370;-70.552;2023-05-06T01:33:04;39.50;;;14.87;;
17520;SDS011;8878;-33.370;-70.552;2023-05-06T01:35:42;33.27;;;11.63;;
17520;SDS011;8878;-33.370;-70.552;2023-05-06T01:38:23;29.07;;;12.83;;
17520;SDS011;8878;-33.370;-70.552;2023-05-06T01:41:03;37.13;;;13.80;;
17520;SDS011;8878;-33.370;-70.552;2023-05-06T01:43:37;34.63;;;14.40;;
17520;SDS011;8878;-33.370;-70.552;2023-05-06T01:46:08;36.97;;;13.73;;
17520;SDS011;8878;-33.370;-70.552;2023-05-06T01:48:42;30.37;;;12.77;;
17520;SDS011;8878;-33.370;-70.552;2023-05-06T01:51:14;31.63;;;12.77;;
17520;SDS011;8878;-33.370;-70.552;2023-05-06T01:53:44;42.30;;;13.97;;
17520;SDS011;8878;-33.370;-70.552;2023-05-06T01:56:15;32.43;;;11.57;;
17520;SDS011;8878;-33.370;-70.552;2023-05-06T01:58:46;33.90;;;14.00;;
17520;SDS011;8878;-33.370;-70.552;2023-05-06T02:01:15;28.93;;;12.23;;
17520;SDS011;8878;-33.370;-70.552;2023-05-06T02:03:45;31.10;;;12.20;;
17520;SDS011;8878;-33.370;-70.552;2023-05-06T02:06:14;35.83;;;11.90;;
17520;SDS011;8878;-33.370;-70.552;2023-05-06T02:08:44;32.90;;;13.10;;
17520;SDS011;8878;-33.370;-70.552;2023-05-06T02:11:15;29.20;;;12.50;;
17520;SDS011;8878;-33.370;-70.552;2023-05-06T02:13:44;26.70;;;11.03;;
17520;SDS011;8878;-33.370;-70.552;2023-05-06T02:16:14;32.80;;;12.43;;
17520;SDS011;8878;-33.370;-70.552;2023-05-06T02:18:43;29.40;;;10.30;;
17520;SDS011;8878;-33.370;-70.552;2023-05-06T02:21:13;38.60;;;12.87;;
17520;SDS011;8878;-33.370;-70.552;2023-05-06T02:23:42;30.37;;;12.63;;
17520;SDS011;8878;-33.370;-70.552;2023-05-06T02:26:11;27.10;;;10.97;;
17520;SDS011;8878;-33.370;-70.552;2023-05-06T02:28:43;33.03;;;11.27;;
17520;SDS011;8878;-33.370;-70.552;2023-05-06T02:31:12;34.93;;;13.60;;
17520;SDS011;8878;-33.370;-70.552;2023-05-06T02:33:43;25.67;;;11.60;;
17520;SDS011;8878;-33.370;-70.552;2023-05-06T02:36:13;32.87;;;11.13;;
17520;SDS011;8878;-33.370;-70.552;2023-05-06T02:38:42;34.23;;;12.40;;
17520;SDS011;8878;-33.370;-70.552;2023-05-06T02:41:12;31.37;;;12.20;;
17520;SDS011;8878;-33.370;-70.552;2023-05-06T02:43:43;34.80;;;14.07;;
17520;SDS011;8878;-33.370;-70.552;2023-05-06T02:46:12;30.20;;;12.27;;
17520;SDS011;8878;-33.370;-70.552;2023-05-06T02:48:42;32.90;;;13.50;;
17520;SDS011;8878;-33.370;-70.552;2023-05-06T02:51:11;25.57;;;11.13;;
17520;SDS011;8878;-33.370;-70.552;2023-05-06T02:53:41;35.30;;;12.80;;
17520;SDS011;8878;-33.370;-70.552;2023-05-06T02:56:11;31.33;;;13.43;;
17520;SDS011;8878;-33.370;-70.552;2023-05-06T02:58:41;29.57;;;10.53;;
17520;SDS011;8878;-33.370;-70.552;2023-05-06T03:01:13;29.03;;;10.70;;
17520;SDS011;8878;-33.370;-70.552;2023-05-06T03:03:42;25.30;;;12.03;;
17520;SDS011;8878;-33.370;-70.552;2023-05-06T03:06:14;28.17;;;11.90;;
17520;SDS011;8878;-33.370;-70.552;2023-05-06T03:08:43;28.47;;;11.43;;
17520;SDS011;8878;-33.370;-70.552;2023-05-06T03:11:12;23.60;;;10.23;;
17520;SDS011;8878;-33.370;-70.552;2023-05-06T03:13:44;27.37;;;12.03;;
17520;SDS011;8878;-33.370;-70.552;2023-05-06T03:16:13;29.73;;;10.57;;
17520;SDS011;8878;-33.370;-70.552;2023-05-06T03:18:43;27.43;;;12.97;;
17520;SDS011;8878;-33.370;-70.552;2023-05-06T03:21:12;38.20;;;12.63;;
17520;SDS011;8878;-33.370;-70.552;2023-05-06T03:23:42;29.30;;;11.97;;
17520;SDS011;8878;-33.370;-70.552;2023-05-06T03:26:11;32.37;;;9.97;;
17520;SDS011;8878;-33.370;-70.552;2023-05-06T03:28:43;31.90;;;12.50;;
17520;SDS011;8878;-33.370;-70.552;2023-05-06T03:31:13;35.03;;;13.00;;
17520;SDS011;8878;-33.370;-70.552;2023-05-06T03:33:42;35.13;;;11.03;;
17520;SDS011;8878;-33.370;-70.552;2023-05-06T03:36:12;25.40;;;10.67;;
17520;SDS011;8878;-33.370;-70.552;2023-05-06T03:38:41;31.87;;;10.37;;
17520;SDS011;8878;-33.370;-70.552;2023-05-06T03:41:11;26.17;;;11.40;;
17520;SDS011;8878;-33.370;-70.552;2023-05-06T03:43:40;31.87;;;11.93;;
17520;SDS011;8878;-33.370;-70.552;2023-05-06T03:46:11;27.60;;;11.70;;
17520;SDS011;8878;-33.370;-70.552;2023-05-06T03:48:41;27.97;;;11.80;;
17520;SDS011;8878;-33.370;-70.552;2023-05-06T03:51:10;32.57;;;11.97;;
17520;SDS011;8878;-33.370;-70.552;2023-05-06T03:53:40;21.40;;;10.23;;
17520;SDS011;8878;-33.370;-70.552;2023-05-06T03:56:09;25.37;;;11.10;;
17520;SDS011;8878;-33.370;-70.552;2023-05-06T03:58:39;32.33;;;12.97;;
17520;SDS011;8878;-33.370;-70.552;2023-05-06T04:01:10;21.47;;;11.10;;
17520;SDS011;8878;-33.370;-70.552;2023-05-06T04:03:39;32.47;;;10.20;;
17520;SDS011;8878;-33.370;-70.552;2023-05-06T04:06:09;25.87;;;9.77;;
17520;SDS011;8878;-33.370;-70.552;2023-05-06T04:08:38;27.50;;;10.97;;
17520;SDS011;8878;-33.370;-70.552;2023-05-06T04:11:08;36.83;;;11.83;;
17520;SDS011;8878;-33.370;-70.552;2023-05-06T04:13:37;29.73;;;11.63;;
17520;SDS011;8878;-33.370;-70.552;2023-05-06T04:16:06;21.17;;;9.80;;
17520;SDS011;8878;-33.370;-70.552;2023-05-06T04:18:39;36.90;;;11.70;;
17520;SDS011;8878;-33.370;-70.552;2023-05-06T04:21:08;26.73;;;11.00;;
17520;SDS011;8878;-33.370;-70.552;2023-05-06T04:23:38;24.53;;;10.50;;
17520;SDS011;8878;-33.370;-70.552;2023-05-06T04:26:08;24.80;;;9.63;;
17520;SDS011;8878;-33.370;-70.552;2023-05-06T04:28:38;36.57;;;9.83;;
17520;SDS011;8878;-33.370;-70.552;2023-05-06T04:31:07;33.13;;;10.77;;
17520;SDS011;8878;-33.370;-70.552;2023-05-06T04:33:38;31.40;;;11.43;;
17520;SDS011;8878;-33.370;-70.552;2023-05-06T04:36:08;27.37;;;9.97;;
17520;SDS011;8878;-33.370;-70.552;2023-05-06T04:38:37;29.90;;;9.60;;
17520;SDS011;8878;-33.370;-70.552;2023-05-06T04:41:07;25.97;;;9.57;;
17520;SDS011;8878;-33.370;-70.552;2023-05-06T04:43:36;31.67;;;10.00;;
17520;SDS011;8878;-33.370;-70.552;2023-05-06T04:46:06;28.17;;;12.27;;
17520;SDS011;8878;-33.370;-70.552;2023-05-06T04:48:36;37.57;;;10.20;;
17520;SDS011;8878;-33.370;-70.552;2023-05-06T04:51:07;36.20;;;9.20;;
17520;SDS011;8878;-33.370;-70.552;2023-05-06T04:53:36;22.27;;;9.03;;
17520;SDS011;8878;-33.370;-70.552;2023-05-06T04:56:06;18.03;;;8.93;;
17520;SDS011;8878;-33.370;-70.552;2023-05-06T04:58:36;18.40;;;8.27;;
17520;SDS011;8878;-33.370;-70.552;2023-05-06T05:01:06;22.03;;;9.70;;
17520;SDS011;8878;-33.370;-70.552;2023-05-06T05:03:39;22.00;;;9.33;;
17520;SDS011;8878;-33.370;-70.552;2023-05-06T05:06:09;20.53;;;10.27;;
17520;SDS011;8878;-33.370;-70.552;2023-05-06T05:08:38;18.17;;;8.00;;
17520;SDS011;8878;-33.370;-70.552;2023-05-06T05:11:08;17.93;;;8.23;;
17520;SDS011;8878;-33.370;-70.552;2023-05-06T05:13:37;14.87;;;7.47;;
17520;SDS011;8878;-33.370;-70.552;2023-05-06T05:16:07;22.50;;;7.70;;
17520;SDS011;8878;-33.370;-70.552;2023-05-06T05:18:36;24.20;;;8.97;;
17520;SDS011;8878;-33.370;-70.552;2023-05-06T05:21:07;23.87;;;8.90;;
17520;SDS011;8878;-33.370;-70.552;2023-05-06T05:23:37;25.07;;;8.07;;
17520;SDS011;8878;-33.370;-70.552;2023-05-06T05:26:07;27.97;;;8.67;;
17520;SDS011;8878;-33.370;-70.552;2023-05-06T05:28:37;32.10;;;9.77;;
17520;SDS011;8878;-33.370;-70.552;2023-05-06T05:31:06;24.60;;;9.67;;
17520;SDS011;8878;-33.370;-70.552;2023-05-06T05:33:36;25.73;;;7.77;;
17520;SDS011;8878;-33.370;-70.552;2023-05-06T05:36:07;27.30;;;10.73;;
17520;SDS011;8878;-33.370;-70.552;2023-05-06T05:38:37;19.20;;;8.50;;
17520;SDS011;8878;-33.370;-70.552;2023-05-06T05:41:06;24.73;;;9.80;;
17520;SDS011;8878;-33.370;-70.552;2023-05-06T05:43:36;21.80;;;8.73;;
17520;SDS011;8878;-33.370;-70.552;2023-05-06T05:46:05;20.07;;;7.80;;
17520;SDS011;8878;-33.370;-70.552;2023-05-06T05:48:35;25.93;;;8.93;;
17520;SDS011;8878;-33.370;-70.552;2023-05-06T05:51:04;21.10;;;9.47;;
17520;SDS011;8878;-33.370;-70.552;2023-05-06T05:53:35;25.90;;;6.10;;
17520;SDS011;8878;-33.370;-70.552;2023-05-06T05:56:05;29.30;;;8.77;;
17520;SDS011;8878;-33.370;-70.552;2023-05-06T05:58:35;27.73;;;7.90;;
17520;SDS011;8878;-33.370;-70.552;2023-05-06T06:01:04;24.77;;;8.23;;
17520;SDS011;8878;-33.370;-70.552;2023-05-06T06:03:33;20.20;;;7.77;;
17520;SDS011;8878;-33.370;-70.552;2023-05-06T06:06:03;31.10;;;8.30;;
17520;SDS011;8878;-33.370;-70.552;2023-05-06T06:08:34;16.07;;;6.70;;
17520;SDS011;8878;-33.370;-70.552;2023-05-06T06:11:04;19.37;;;8.13;;
17520;SDS011;8878;-33.370;-70.552;2023-05-06T06:13:34;24.03;;;8.47;;
17520;SDS011;8878;-33.370;-70.552;2023-05-06T06:16:03;22.67;;;8.43;;
17520;SDS011;8878;-33.370;-70.552;2023-05-06T06:18:33;25.20;;;7.90;;
17520;SDS011;8878;-33.370;-70.552;2023-05-06T06:21:03;21.20;;;8.17;;
17520;SDS011;8878;-33.370;-70.552;2023-05-06T06:23:34;19.13;;;7.73;;
17520;SDS011;8878;-33.370;-70.552;2023-05-06T06:26:04;17.17;;;7.73;;
17520;SDS011;8878;-33.370;-70.552;2023-05-06T06:28:33;32.23;;;9.20;;
17520;SDS011;8878;-33.370;-70.552;2023-05-06T06:31:03;18.13;;;7.93;;
17520;SDS011;8878;-33.370;-70.552;2023-05-06T06:33:32;19.77;;;7.30;;
17520;SDS011;8878;-33.370;-70.552;2023-05-06T06:36:02;25.70;;;6.87;;
17520;SDS011;8878;-33.370;-70.552;2023-05-06T06:38:32;23.30;;;8.43;;
17520;SDS011;8878;-33.370;-70.552;2023-05-06T06:41:03;20.13;;;7.07;;
17520;SDS011;8878;-33.370;-70.552;2023-05-06T06:43:33;15.80;;;6.93;;
17520;SDS011;8878;-33.370;-70.552;2023-05-06T06:46:02;25.57;;;8.17;;
17520;SDS011;8878;-33.370;-70.552;2023-05-06T06:48:31;17.30;;;5.80;;
17520;SDS011;8878;-33.370;-70.552;2023-05-06T06:51:01;23.67;;;5.63;;
17520;SDS011;8878;-33.370;-70.552;2023-05-06T06:53:31;19.80;;;6.77;;
17520;SDS011;8878;-33.370;-70.552;2023-05-06T06:56:02;15.23;;;6.43;;
17520;SDS011;8878;-33.370;-70.552;2023-05-06T06:58:35;25.60;;;7.37;;
17520;SDS011;8878;-33.370;-70.552;2023-05-06T07:01:04;13.77;;;5.17;;
17520;SDS011;8878;-33.370;-70.552;2023-05-06T07:03:34;17.73;;;7.30;;
17520;SDS011;8878;-33.370;-70.552;2023-05-06T07:06:05;26.73;;;7.60;;
17520;SDS011;8878;-33.370;-70.552;2023-05-06T07:08:35;17.73;;;6.63;;
17520;SDS011;8878;-33.370;-70.552;2023-05-06T07:11:06;25.93;;;6.33;;
17520;SDS011;8878;-33.370;-70.552;2023-05-06T07:13:36;22.83;;;7.03;;
17520;SDS011;8878;-33.370;-70.552;2023-05-06T07:16:05;23.37;;;6.97;;
17520;SDS011;8878;-33.370;-70.552;2023-05-06T07:18:35;12.37;;;5.40;;
17520;SDS011;8878;-33.370;-70.552;2023-05-06T07:21:04;20.80;;;7.23;;
17520;SDS011;8878;-33.370;-70.552;2023-05-06T07:23:34;14.87;;;5.03;;
17520;SDS011;8878;-33.370;-70.552;2023-05-06T07:26:03;16.10;;;6.13;;
17520;SDS011;8878;-33.370;-70.552;2023-05-06T07:28:34;14.10;;;4.50;;
17520;SDS011;8878;-33.370;-70.552;2023-05-06T07:31:04;13.60;;;5.50;;
17520;SDS011;8878;-33.370;-70.552;2023-05-06T07:33:33;21.00;;;6.80;;
17520;SDS011;8878;-33.370;-70.552;2023-05-06T07:36:03;25.07;;;7.47;;
17520;SDS011;8878;-33.370;-70.552;2023-05-06T07:38:32;10.20;;;5.63;;
17520;SDS011;8878;-33.370;-70.552;2023-05-06T07:41:03;16.03;;;5.60;;
17520;SDS011;8878;-33.370;-70.552;2023-05-06T07:43:34;16.03;;;6.47;;
17520;SDS011;8878;-33.370;-70.552;2023-05-06T07:46:04;16.93;;;6.53;;
17520;SDS011;8878;-33.370;-70.552;2023-05-06T07:48:34;14.30;;;5.63;;
17520;SDS011;8878;-33.370;-70.552;2023-05-06T07:51:03;19.63;;;6.33;;
17520;SDS011;8878;-33.370;-70.552;2023-05-06T07:53:33;18.37;;;5.73;;
17520;SDS011;8878;-33.370;-70.552;2023-05-06T07:56:05;16.60;;;6.13;;
17520;SDS011;8878;-33.370;-70.552;2023-05-06T07:58:36;18.80;;;6.63;;
17520;SDS011;8878;-33.370;-70.552;2023-05-06T08:01:06;13.13;;;4.97;;
17520;SDS011;8878;-33.370;-70.552;2023-05-06T08:03:35;13.67;;;5.87;;
17520;SDS011;8878;-33.370;-70.552;2023-05-06T08:06:06;13.70;;;5.17;;
17520;SDS011;8878;-33.370;-70.552;2023-05-06T08:08:35;13.63;;;4.97;;
17520;SDS011;8878;-33.370;-70.552;2023-05-06T08:11:05;16.37;;;5.93;;
17520;SDS011;8878;-33.370;-70.552;2023-05-06T08:13:36;14.87;;;5.20;;
17520;SDS011;8878;-33.370;-70.552;2023-05-06T08:16:05;15.53;;;4.57;;
17520;SDS011;8878;-33.370;-70.552;2023-05-06T08:18:35;12.80;;;6.20;;
17520;SDS011;8878;-33.370;-70.552;2023-05-06T08:21:05;13.40;;;5.00;;
17520;SDS011;8878;-33.370;-70.552;2023-05-06T08:23:34;13.57;;;4.17;;
17520;SDS011;8878;-33.370;-70.552;2023-05-06T08:26:04;20.87;;;4.63;;
17520;SDS011;8878;-33.370;-70.552;2023-05-06T08:28:33;10.13;;;4.70;;
17520;SDS011;8878;-33.370;-70.552;2023-05-06T08:31:05;9.83;;;5.00;;
17520;SDS011;8878;-33.370;-70.552;2023-05-06T08:33:34;10.83;;;4.27;;
17520;SDS011;8878;-33.370;-70.552;2023-05-06T08:36:04;11.47;;;4.17;;
17520;SDS011;8878;-33.370;-70.552;2023-05-06T08:38:34;11.40;;;4.27;;
17520;SDS011;8878;-33.370;-70.552;2023-05-06T08:41:06;16.90;;;5.90;;
17520;SDS011;8878;-33.370;-70.552;2023-05-06T08:43:42;18.87;;;6.43;;
17520;SDS011;8878;-33.370;-70.552;2023-05-06T08:46:13;20.60;;;6.47;;
17520;SDS011;8878;-33.370;-70.552;2023-05-06T08:48:43;14.13;;;5.07;;
17520;SDS011;8878;-33.370;-70.552;2023-05-06T08:51:14;21.93;;;7.00;;
17520;SDS011;8878;-33.370;-70.552;2023-05-06T08:53:46;15.80;;;5.87;;
17520;SDS011;8878;-33.370;-70.552;2023-05-06T08:56:16;19.43;;;6.13;;
17520;SDS011;8878;-33.370;-70.552;2023-05-06T08:58:48;18.37;;;7.13;;
17520;SDS011;8878;-33.370;-70.552;2023-05-06T09:01:21;19.13;;;7.13;;
17520;SDS011;8878;-33.370;-70.552;2023-05-06T09:03:52;25.63;;;9.23;;
17520;SDS011;8878;-33.370;-70.552;2023-05-06T09:06:22;26.73;;;8.87;;
17520;SDS011;8878;-33.370;-70.552;2023-05-06T09:08:52;17.63;;;8.57;;
17520;SDS011;8878;-33.370;-70.552;2023-05-06T09:11:21;19.83;;;7.63;;
17520;SDS011;8878;-33.370;-70.552;2023-05-06T09:14:06;18.80;;;5.93;;
17520;SDS011;8878;-33.370;-70.552;2023-05-06T09:16:37;24.37;;;6.70;;
17520;SDS011;8878;-33.370;-70.552;2023-05-06T09:19:07;14.37;;;6.70;;
17520;SDS011;8878;-33.370;-70.552;2023-05-06T09:21:38;16.83;;;4.73;;
17520;SDS011;8878;-33.370;-70.552;2023-05-06T09:24:08;24.73;;;5.87;;
17520;SDS011;8878;-33.370;-70.552;2023-05-06T09:26:39;10.10;;;4.20;;
17520;SDS011;8878;-33.370;-70.552;2023-05-06T09:29:11;9.10;;;3.77;;
17520;SDS011;8878;-33.370;-70.552;2023-05-06T09:31:40;12.37;;;4.07;;
17520;SDS011;8878;-33.370;-70.552;2023-05-06T09:34:11;11.97;;;4.63;;
17520;SDS011;8878;-33.370;-70.552;2023-05-06T09:36:42;10.63;;;3.50;;
17520;SDS011;8878;-33.370;-70.552;2023-05-06T09:39:12;11.40;;;3.87;;
17520;SDS011;8878;-33.370;-70.552;2023-05-06T09:41:41;14.33;;;3.30;;
17520;SDS011;8878;-33.370;-70.552;2023-05-06T09:44:13;10.47;;;4.57;;
17520;SDS011;8878;-33.370;-70.552;2023-05-06T09:46:44;6.13;;;3.40;;
17520;SDS011;8878;-33.370;-70.552;2023-05-06T09:49:14;8.30;;;3.03;;
17520;SDS011;8878;-33.370;-70.552;2023-05-06T09:51:44;13.03;;;3.07;;
17520;SDS011;8878;-33.370;-70.552;2023-05-06T09:54:16;10.33;;;3.37;;
17520;SDS011;8878;-33.370;-70.552;2023-05-06T09:56:46;7.27;;;3.07;;
17520;SDS011;8878;-33.370;-70.552;2023-05-06T09:59:20;8.17;;;3.13;;
17520;SDS011;8878;-33.370;-70.552;2023-05-06T10:01:52;14.60;;;3.83;;
17520;SDS011;8878;-33.370;-70.552;2023-05-06T10:04:22;10.93;;;4.37;;
17520;SDS011;8878;-33.370;-70.552;2023-05-06T10:06:55;7.47;;;3.90;;
17520;SDS011;8878;-33.370;-70.552;2023-05-06T10:09:27;11.00;;;3.40;;
17520;SDS011;8878;-33.370;-70.552;2023-05-06T10:11:58;5.83;;;2.53;;
17520;SDS011;8878;-33.370;-70.552;2023-05-06T10:14:31;11.23;;;4.50;;
17520;SDS011;8878;-33.370;-70.552;2023-05-06T10:17:01;18.97;;;5.43;;
17520;SDS011;8878;-33.370;-70.552;2023-05-06T10:19:33;11.87;;;4.23;;
17520;SDS011;8878;-33.370;-70.552;2023-05-06T10:22:09;14.20;;;4.40;;
17520;SDS011;8878;-33.370;-70.552;2023-05-06T10:24:45;13.60;;;3.70;;
17520;SDS011;8878;-33.370;-70.552;2023-05-06T10:27:24;13.27;;;3.00;;
17520;SDS011;8878;-33.370;-70.552;2023-05-06T10:29:57;11.43;;;3.33;;
17520;SDS011;8878;-33.370;-70.552;2023-05-06T10:32:29;11.03;;;3.80;;
17520;SDS011;8878;-33.370;-70.552;2023-05-06T10:35:00;17.47;;;3.53;;
17520;SDS011;8878;-33.370;-70.552;2023-05-06T10:37:35;7.07;;;2.77;;
17520;SDS011;8878;-33.370;-70.552;2023-05-06T10:40:06;7.10;;;2.70;;
17520;SDS011;8878;-33.370;-70.552;2023-05-06T10:42:36;7.07;;;2.20;;
17520;SDS011;8878;-33.370;-70.552;2023-05-06T10:45:08;8.90;;;3.10;;
17520;SDS011;8878;-33.370;-70.552;2023-05-06T10:50:38;7.20;;;2.70;;
17520;SDS011;8878;-33.370;-70.552;2023-05-06T10:53:08;5.40;;;3.27;;
17520;SDS011;8878;-33.370;-70.552;2023-05-06T10:55:38;6.73;;;2.93;;
17520;SDS011;8878;-33.370;-70.552;2023-05-06T10:58:11;10.17;;;3.13;;
17520;SDS011;8878;-33.370;-70.552;2023-05-06T11:00:51;7.50;;;3.37;;
17520;SDS011;8878;-33.370;-70.552;2023-05-06T11:03:22;7.50;;;3.70;;
17520;SDS011;8878;-33.370;-70.552;2023-05-06T11:05:51;10.73;;;3.90;;
17520;SDS011;8878;-33.370;-70.552;2023-05-06T11:08:21;12.07;;;4.87;;
17520;SDS011;8878;-33.370;-70.552;2023-05-06T11:10:51;11.13;;;5.40;;
17520;SDS011;8878;-33.370;-70.552;2023-05-06T11:13:22;8.83;;;4.37;;
17520;SDS011;8878;-33.370;-70.552;2023-05-06T11:15:54;18.30;;;6.07;;
17520;SDS011;8878;-33.370;-70.552;2023-05-06T11:18:40;10.20;;;3.90;;
17520;SDS011;8878;-33.370;-70.552;2023-05-06T11:24:09;9.03;;;4.67;;
17520;SDS011;8878;-33.370;-70.552;2023-05-06T11:26:40;12.47;;;3.83;;
17520;SDS011;8878;-33.370;-70.552;2023-05-06T11:29:10;12.90;;;4.03;;
17520;SDS011;8878;-33.370;-70.552;2023-05-06T11:31:44;10.87;;;3.53;;
17520;SDS011;8878;-33.370;-70.552;2023-05-06T11:34:19;13.57;;;3.40;;
17520;SDS011;8878;-33.370;-70.552;2023-05-06T11:36:57;5.30;;;2.27;;
17520;SDS011;8878;-33.370;-70.552;2023-05-06T11:39:29;7.17;;;3.27;;
17520;SDS011;8878;-33.370;-70.552;2023-05-06T11:41:59;15.10;;;4.40;;
17520;SDS011;8878;-33.370;-70.552;2023-05-06T11:44:30;11.87;;;3.33;;
17520;SDS011;8878;-33.370;-70.552;2023-05-06T11:47:03;11.30;;;4.53;;
17520;SDS011;8878;-33.370;-70.552;2023-05-06T11:49:38;22.37;;;5.90;;
17520;SDS011;8878;-33.370;-70.552;2023-05-06T11:52:08;15.67;;;5.70;;
17520;SDS011;8878;-33.370;-70.552;2023-05-06T11:54:39;17.97;;;7.70;;
17520;SDS011;8878;-33.370;-70.552;2023-05-06T11:57:09;20.73;;;6.70;;
17520;SDS011;8878;-33.370;-70.552;2023-05-06T11:59:39;15.90;;;6.50;;
17520;SDS011;8878;-33.370;-70.552;2023-05-06T12:02:11;19.40;;;7.43;;
17520;SDS011;8878;-33.370;-70.552;2023-05-06T12:04:42;23.70;;;7.30;;
17520;SDS011;8878;-33.370;-70.552;2023-05-06T12:07:13;26.70;;;9.80;;
17520;SDS011;8878;-33.370;-70.552;2023-05-06T12:09:44;27.17;;;7.17;;
17520;SDS011;8878;-33.370;-70.552;2023-05-06T12:12:16;18.30;;;7.30;;
17520;SDS011;8878;-33.370;-70.552;2023-05-06T12:14:49;24.63;;;7.53;;
17520;SDS011;8878;-33.370;-70.552;2023-05-06T12:17:21;27.27;;;7.60;;
17520;SDS011;8878;-33.370;-70.552;2023-05-06T12:19:51;21.17;;;7.83;;
17520;SDS011;8878;-33.370;-70.552;2023-05-06T12:22:21;30.73;;;7.93;;
17520;SDS011;8878;-33.370;-70.552;2023-05-06T12:24:51;23.00;;;7.20;;
17520;SDS011;8878;-33.370;-70.552;2023-05-06T12:27:28;24.60;;;7.57;;
17520;SDS011;8878;-33.370;-70.552;2023-05-06T12:30:03;23.70;;;7.87;;
17520;SDS011;8878;-33.370;-70.552;2023-05-06T12:32:54;25.63;;;9.30;;
17520;SDS011;8878;-33.370;-70.552;2023-05-06T12:35:24;19.20;;;7.90;;
17520;SDS011;8878;-33.370;-70.552;2023-05-06T12:37:54;17.70;;;7.43;;
17520;SDS011;8878;-33.370;-70.552;2023-05-06T12:40:24;34.60;;;8.97;;
17520;SDS011;8878;-33.370;-70.552;2023-05-06T12:42:54;24.40;;;7.90;;
17520;SDS011;8878;-33.370;-70.552;2023-05-06T12:45:24;25.33;;;9.23;;
17520;SDS011;8878;-33.370;-70.552;2023-05-06T12:47:56;33.37;;;10.90;;
17520;SDS011;8878;-33.370;-70.552;2023-05-06T12:50:30;32.60;;;10.00;;
17520;SDS011;8878;-33.370;-70.552;2023-05-06T12:53:01;29.50;;;11.17;;
17520;SDS011;8878;-33.370;-70.552;2023-05-06T12:55:31;29.90;;;9.93;;
17520;SDS011;8878;-33.370;-70.552;2023-05-06T12:58:01;24.03;;;10.57;;
17520;SDS011;8878;-33.370;-70.552;2023-05-06T13:00:31;26.03;;;11.30;;
17520;SDS011;8878;-33.370;-70.552;2023-05-06T13:03:02;32.83;;;12.43;;
17520;SDS011;8878;-33.370;-70.552;2023-05-06T13:05:32;48.43;;;14.20;;
17520;SDS011;8878;-33.370;-70.552;2023-05-06T13:08:01;34.17;;;14.53;;
17520;SDS011;8878;-33.370;-70.552;2023-05-06T13:10:31;40.50;;;16.17;;
17520;SDS011;8878;-33.370;-70.552;2023-05-06T13:13:01;48.20;;;16.27;;
17520;SDS011;8878;-33.370;-70.552;2023-05-06T13:15:31;33.77;;;13.80;;
17520;SDS011;8878;-33.370;-70.552;2023-05-06T13:18:00;45.97;;;16.70;;
17520;SDS011;8878;-33.370;-70.552;2023-05-06T13:20:31;36.43;;;16.13;;
17520;SDS011;8878;-33.370;-70.552;2023-05-06T13:23:01;38.13;;;17.03;;
17520;SDS011;8878;-33.370;-70.552;2023-05-06T13:25:31;33.87;;;14.40;;
17520;SDS011;8878;-33.370;-70.552;2023-05-06T13:28:01;41.27;;;15.87;;
17520;SDS011;8878;-33.370;-70.552;2023-05-06T13:30:30;36.03;;;14.57;;
17520;SDS011;8878;-33.370;-70.552;2023-05-06T13:33:00;48.70;;;17.70;;
17520;SDS011;8878;-33.370;-70.552;2023-05-06T13:35:31;45.10;;;15.53;;
17520;SDS011;8878;-33.370;-70.552;2023-05-06T13:38:01;33.60;;;14.97;;
17520;SDS011;8878;-33.370;-70.552;2023-05-06T13:40:30;45.33;;;18.47;;
17520;SDS011;8878;-33.370;-70.552;2023-05-06T13:43:00;35.30;;;14.73;;
17520;SDS011;8878;-33.370;-70.552;2023-05-06T13:45:29;41.23;;;15.17;;
17520;SDS011;8878;-33.370;-70.552;2023-05-06T13:48:03;32.73;;;14.07;;
17520;SDS011;8878;-33.370;-70.552;2023-05-06T13:50:32;33.60;;;13.93;;
17520;SDS011;8878;-33.370;-70.552;2023-05-06T13:53:02;29.47;;;13.47;;
17520;SDS011;8878;-33.370;-70.552;2023-05-06T13:55:32;39.63;;;14.83;;
17520;SDS011;8878;-33.370;-70.552;2023-05-06T13:58:02;35.37;;;14.83;;
17520;SDS011;8878;-33.370;-70.552;2023-05-06T14:00:32;36.50;;;14.57;;
17520;SDS011;8878;-33.370;-70.552;2023-05-06T14:03:04;31.50;;;13.87;;
17520;SDS011;8878;-33.370;-70.552;2023-05-06T14:05:35;31.53;;;13.17;;
17520;SDS011;8878;-33.370;-70.552;2023-05-06T14:08:05;28.17;;;11.73;;
17520;SDS011;8878;-33.370;-70.552;2023-05-06T14:10:35;37.77;;;15.30;;
17520;SDS011;8878;-33.370;-70.552;2023-05-06T14:13:04;27.70;;;13.53;;
17520;SDS011;8878;-33.370;-70.552;2023-05-06T14:15:34;36.17;;;14.80;;
17520;SDS011;8878;-33.370;-70.552;2023-05-06T14:18:05;36.43;;;14.97;;
17520;SDS011;8878;-33.370;-70.552;2023-05-06T14:20:34;44.37;;;16.03;;
17520;SDS011;8878;-33.370;-70.552;2023-05-06T14:23:04;48.13;;;15.37;;
17520;SDS011;8878;-33.370;-70.552;2023-05-06T14:25:33;30.57;;;13.80;;
17520;SDS011;8878;-33.370;-70.552;2023-05-06T14:28:03;38.53;;;15.30;;
17520;SDS011;8878;-33.370;-70.552;2023-05-06T14:30:33;41.43;;;15.23;;